Time;durP1;ratioP1;P1;durP2;ratioP2;P2;SDS_P1;SDS_P2;PMS_P1;PMS_P2;Temp;Humidity;BMP_temperature;BMP_pressure;BME280_temperature;BME280_humidity;BME280_pressure;Samples;Min_cycle;Max_cycle;Signal;HPM_P1;HPM_P2
2021/12/19 00:00:17;;;;;;;7.47;4.60;;;10.80;93.30;;;;;;4936493;29;20526;-75
2021/12/19 00:10:47;;;;;;;8.13;4.97;;;10.80;93.40;;;;;;4936296;29;20110;-75
2021/12/19 00:13:13;;;;;;;8.50;4.63;;;10.80;93.40;;;;;;4936143;29;20453;-76
2021/12/19 00:15:39;;;;;;;9.70;4.47;;;10.80;93.40;;;;;;4918864;29;20578;-76
2021/12/19 00:18:04;;;;;;;7.75;4.45;;;10.80;93.40;;;;;;4919090;29;20064;-76
2021/12/19 00:20:30;;;;;;;9.32;5.25;;;10.80;93.40;;;;;;4918981;29;20063;-76
2021/12/19 00:22:55;;;;;;;7.95;4.45;;;10.80;93.50;;;;;;4935888;29;20036;-75
2021/12/19 00:25:21;;;;;;;8.50;4.78;;;10.80;93.50;;;;;;4935354;29;20031;-76
2021/12/19 00:27:46;;;;;;;8.18;4.55;;;10.80;93.50;;;;;;4918856;29;20083;-75
2021/12/19 00:30:12;;;;;;;9.35;4.72;;;10.80;93.50;;;;;;4918893;29;20035;-75
2021/12/19 00:32:40;;;;;;;6.88;4.30;;;10.80;93.50;;;;;;4918759;29;20479;-76
2021/12/19 00:35:06;;;;;;;8.02;4.75;;;10.80;93.50;;;;;;4918426;29;20032;-75
2021/12/19 00:37:31;;;;;;;7.45;4.20;;;10.80;93.70;;;;;;4935735;29;20052;-75
2021/12/19 00:39:57;;;;;;;7.75;4.60;;;10.80;93.70;;;;;;4918621;29;20024;-75
2021/12/19 00:42:28;;;;;;;8.15;4.78;;;10.80;93.50;;;;;;4918705;29;20055;-75
2021/12/19 00:44:53;;;;;;;8.18;4.70;;;10.80;93.40;;;;;;4918440;29;20031;-76
2021/12/19 00:47:19;;;;;;;6.82;4.30;;;10.80;93.40;;;;;;4918569;29;20538;-75
2021/12/19 00:49:44;;;;;;;7.40;4.65;;;10.80;93.40;;;;;;4918633;29;20030;-75
2021/12/19 00:52:10;;;;;;;7.68;4.47;;;10.80;93.40;;;;;;4918335;29;20024;-75
2021/12/19 00:54:35;;;;;;;8.05;4.25;;;10.80;93.50;;;;;;4935197;29;20032;-75
2021/12/19 00:57:01;;;;;;;8.10;4.43;;;10.80;93.40;;;;;;4918409;29;20032;-75
2021/12/19 00:59:27;;;;;;;7.03;4.25;;;10.80;93.40;;;;;;4935473;29;20107;-75
2021/12/19 01:01:52;;;;;;;8.30;4.60;;;10.80;93.40;;;;;;4918250;29;20111;-76
2021/12/19 01:04:19;;;;;;;7.07;4.28;;;10.80;93.40;;;;;;4918079;29;20091;-75
2021/12/19 01:06:46;;;;;;;7.95;4.13;;;10.80;93.40;;;;;;4935263;29;20167;-76
2021/12/19 01:09:13;;;;;;;6.53;4.00;;;10.80;93.40;;;;;;4935249;29;20491;-75
2021/12/19 01:11:39;;;;;;;6.85;4.22;;;10.80;93.30;;;;;;4918173;29;20056;-75
2021/12/19 01:14:05;;;;;;;7.93;4.43;;;10.80;93.60;;;;;;4917898;29;20123;-75
2021/12/19 01:16:31;;;;;;;9.02;3.90;;;10.80;93.40;;;;;;4918179;29;20032;-75
2021/12/19 01:18:58;;;;;;;7.05;4.18;;;10.80;93.40;;;;;;4918322;29;20032;-75
2021/12/19 01:21:24;;;;;;;6.57;4.18;;;10.80;93.30;;;;;;4918083;29;20030;-75
2021/12/19 01:23:49;;;;;;;7.10;3.78;;;10.80;93.30;;;;;;4917115;29;20062;-75
2021/12/19 01:26:15;;;;;;;6.47;3.63;;;10.80;93.30;;;;;;4934933;29;20526;-75
2021/12/19 01:28:42;;;;;;;7.90;4.40;;;10.80;93.30;;;;;;4918010;29;20035;-74
2021/12/19 01:31:08;;;;;;;6.38;3.70;;;10.80;93.30;;;;;;4918016;29;20030;-75
2021/12/19 01:33:34;;;;;;;6.00;3.50;;;10.80;93.30;;;;;;4917631;29;20529;-75
2021/12/19 01:35:59;;;;;;;6.15;3.50;;;10.80;93.30;;;;;;4935039;29;20076;-75
2021/12/19 01:38:25;;;;;;;6.07;3.53;;;10.80;93.30;;;;;;4934984;29;20039;-75
2021/12/19 01:40:51;;;;;;;6.10;3.60;;;10.80;93.30;;;;;;4934869;29;20394;-75
2021/12/19 01:43:20;;;;;;;6.07;3.50;;;10.80;93.30;;;;;;4917834;29;20028;-74
2021/12/19 01:45:46;;;;;;;6.80;3.75;;;10.80;93.20;;;;;;4934690;29;20028;-75
2021/12/19 01:48:13;;;;;;;6.80;3.33;;;10.80;93.20;;;;;;4934882;29;20024;-75
2021/12/19 01:50:40;;;;;;;5.78;3.28;;;10.80;93.20;;;;;;4917937;29;20028;-76
2021/12/19 01:53:08;;;;;;;7.22;3.60;;;10.80;93.20;;;;;;4934711;29;20036;-75
2021/12/19 01:55:34;;;;;;;6.03;3.38;;;10.80;93.20;;;;;;4917507;29;20030;-75
2021/12/19 01:58:00;;;;;;;7.47;3.58;;;10.80;93.20;;;;;;4935143;29;20032;-75
2021/12/19 02:00:30;;;;;;;6.30;3.30;;;10.80;93.20;;;;;;4935178;29;20383;-75
2021/12/19 02:02:56;;;;;;;6.15;3.25;;;10.80;93.20;;;;;;4934709;29;20032;-75
2021/12/19 02:05:23;;;;;;;7.57;3.85;;;10.80;93.20;;;;;;4917293;29;20027;-76
2021/12/19 02:07:50;;;;;;;5.80;3.28;;;10.80;93.20;;;;;;4917705;29;20040;-75
2021/12/19 02:10:20;;;;;;;6.60;3.10;;;10.80;93.30;;;;;;4917480;29;20407;-75
2021/12/19 02:12:47;;;;;;;6.63;3.47;;;10.80;93.20;;;;;;4934788;29;20059;-75
2021/12/19 02:15:17;;;;;;;6.82;3.47;;;10.80;93.20;;;;;;4917459;29;20635;-75
2021/12/19 02:17:44;;;;;;;6.45;3.58;;;10.80;93.20;;;;;;4934695;29;20059;-75
2021/12/19 02:20:11;;;;;;;6.95;3.92;;;10.80;93.30;;;;;;4917485;29;20024;-75
2021/12/19 02:22:37;;;;;;;6.47;3.50;;;10.80;93.20;;;;;;4934508;29;20036;-75
2021/12/19 02:25:03;;;;;;;6.43;3.40;;;10.80;93.20;;;;;;4933598;29;20042;-76
2021/12/19 02:27:29;;;;;;;6.88;3.30;;;10.80;93.20;;;;;;4917640;29;20032;-75
2021/12/19 02:29:56;;;;;;;6.30;3.58;;;10.80;93.30;;;;;;4919859;29;20026;-76
2021/12/19 02:32:23;;;;;;;6.05;3.30;;;10.80;93.20;;;;;;4920927;29;20023;-75
2021/12/19 02:34:51;;;;;;;6.53;3.42;;;10.80;93.30;;;;;;4916852;29;20038;-76
2021/12/19 02:37:52;;;;;;;6.80;3.70;;;10.80;93.20;;;;;;4932424;29;20027;-75
2021/12/19 02:48:28;;;;;;;6.15;3.40;;;10.80;93.20;;;;;;4937672;29;20513;-75
2021/12/19 02:50:54;;;;;;;6.32;3.40;;;10.80;93.20;;;;;;4920544;29;20031;-75
2021/12/19 02:53:32;;;;;;;7.20;3.78;;;10.80;93.20;;;;;;4937469;29;20024;-76
2021/12/19 02:56:02;;;;;;;7.82;3.50;;;10.80;93.20;;;;;;4920630;29;20024;-75
2021/12/19 02:58:29;;;;;;;6.70;3.88;;;10.80;93.20;;;;;;4920319;29;20027;-76
2021/12/19 03:00:55;;;;;;;6.25;3.45;;;10.80;93.20;;;;;;4937382;29;20035;-75
2021/12/19 03:03:20;;;;;;;6.72;3.42;;;10.80;93.10;;;;;;4937115;29;20125;-75
2021/12/19 03:05:47;;;;;;;6.90;3.78;;;10.80;93.20;;;;;;4920328;29;20434;-75
2021/12/19 03:08:13;;;;;;;6.13;3.30;;;10.80;93.20;;;;;;4920291;29;20024;-75
2021/12/19 03:18:50;;;;;;;6.05;3.30;;;10.80;93.20;;;;;;4937056;29;20063;-75
2021/12/19 03:21:17;;;;;;;6.07;3.55;;;10.80;93.20;;;;;;4944719;29;20039;-75
2021/12/19 03:23:43;;;;;;;5.80;3.30;;;10.80;93.20;;;;;;4919217;29;20465;-75
2021/12/19 03:26:09;;;;;;;6.43;3.80;;;10.80;93.20;;;;;;4936669;29;20136;-76
2021/12/19 03:28:35;;;;;;;7.30;3.33;;;10.80;93.20;;;;;;4919995;29;20020;-75
2021/12/19 03:31:03;;;;;;;6.70;3.40;;;10.80;93.10;;;;;;4919797;29;20034;-75
2021/12/19 03:33:30;;;;;;;6.20;3.58;;;10.80;93.10;;;;;;4919547;29;20023;-75
2021/12/19 03:35:55;;;;;;;6.10;3.35;;;10.80;93.20;;;;;;4919695;29;20035;-75
2021/12/19 03:38:21;;;;;;;6.28;3.53;;;10.80;93.20;;;;;;4936809;29;20032;-76
2021/12/19 03:41:07;;;;;;;6.20;3.50;;;10.80;93.20;;;;;;4918554;29;20494;-75
2021/12/19 03:43:33;;;;;;;7.10;3.58;;;10.80;93.10;;;;;;4936429;29;20479;-75
2021/12/19 03:45:59;;;;;;;7.05;3.65;;;10.80;93.10;;;;;;4919416;29;20052;-75
2021/12/19 03:48:24;;;;;;;6.20;3.70;;;10.80;93.10;;;;;;4919638;29;20075;-75
2021/12/19 03:50:50;;;;;;;5.88;3.50;;;10.80;93.20;;;;;;4919726;29;20026;-76
2021/12/19 03:53:18;;;;;;;6.65;3.60;;;10.80;93.10;;;;;;4919404;29;20051;-75
2021/12/19 03:55:45;;;;;;;7.40;3.83;;;10.70;93.10;;;;;;4919288;29;20511;-77
2021/12/19 03:58:11;;;;;;;6.53;3.58;;;10.80;93.10;;;;;;4918881;29;20070;-75
2021/12/19 04:00:37;;;;;;;6.88;3.95;;;10.80;93.10;;;;;;4919449;29;20055;-76
2021/12/19 04:03:07;;;;;;;6.68;3.75;;;10.80;93.10;;;;;;4919142;29;20487;-75
2021/12/19 04:05:33;;;;;;;5.72;3.33;;;10.80;93.10;;;;;;4935974;29;20031;-75
2021/12/19 04:07:59;;;;;;;5.85;3.42;;;10.80;93.10;;;;;;4919300;29;20032;-75
2021/12/19 04:10:27;;;;;;;6.38;3.70;;;10.80;93.10;;;;;;4919286;29;20422;-75
2021/12/19 04:12:54;;;;;;;7.00;3.58;;;10.80;93.10;;;;;;4919180;29;20235;-75
2021/12/19 04:15:19;;;;;;;7.38;3.72;;;10.80;93.10;;;;;;4935868;29;20119;-75
2021/12/19 04:17:45;;;;;;;6.40;3.50;;;10.80;93.10;;;;;;4936224;29;20506;-75
2021/12/19 04:20:11;;;;;;;7.22;4.13;;;10.80;93.10;;;;;;4936120;29;20027;-75
2021/12/19 04:22:37;;;;;;;7.20;3.53;;;10.80;93.10;;;;;;4918838;29;20404;-75
2021/12/19 04:25:04;;;;;;;7.38;3.67;;;10.80;93.10;;;;;;4917985;29;20036;-75
2021/12/19 04:27:30;;;;;;;6.45;3.80;;;10.80;93.10;;;;;;4918949;29;20047;-75
2021/12/19 04:29:55;;;;;;;7.10;3.83;;;10.80;93.10;;;;;;4918807;29;20032;-75
2021/12/19 04:32:25;;;;;;;6.60;3.75;;;10.80;93.10;;;;;;4935766;29;20024;-75
2021/12/19 04:34:50;;;;;;;6.72;3.88;;;10.80;93.10;;;;;;4918509;29;20036;-75
2021/12/19 04:40:09;;;;;;;6.40;3.63;;;10.80;93.00;;;;;;4935865;29;20566;-76
2021/12/19 04:51:01;;;;;;;6.40;3.88;;;10.80;93.10;;;;;;4936118;29;20043;-77
2021/12/19 04:53:46;;;;;;;6.50;3.95;;;10.80;93.10;;;;;;4936026;29;20024;-78
2021/12/19 05:01:30;;;;;;;8.10;3.90;;;10.90;93.00;;;;;;4936103;29;20031;-77
2021/12/19 05:04:09;;;;;;;7.05;4.05;;;10.90;92.90;;;;;;4918762;29;20114;-77
2021/12/19 05:14:39;;;;;;;6.53;4.13;;;10.90;92.80;;;;;;4935820;29;20035;-77
2021/12/19 05:17:08;;;;;;;6.90;4.07;;;10.90;92.80;;;;;;4934703;29;20071;-77
2021/12/19 05:19:48;;;;;;;8.20;4.70;;;10.90;92.80;;;;;;4935385;29;20015;-77
2021/12/19 05:22:13;;;;;;;8.80;4.95;;;10.90;92.70;;;;;;4934616;29;20447;-77
2021/12/19 05:24:47;;;;;;;7.60;4.20;;;10.90;92.70;;;;;;4932998;29;20078;-76
2021/12/19 05:27:13;;;;;;;8.90;4.20;;;10.90;92.70;;;;;;4919985;29;20024;-77
2021/12/19 05:29:39;;;;;;;7.57;4.18;;;10.90;92.70;;;;;;4937480;29;20486;-77
2021/12/19 05:32:05;;;;;;;7.40;4.38;;;10.90;92.70;;;;;;4953240;29;20031;-78
2021/12/19 05:34:31;;;;;;;6.60;4.07;;;11.00;92.70;;;;;;4954782;29;20094;-77
2021/12/19 05:47:36;;;;;;;9.00;4.60;;;10.90;92.70;;;;;;4954562;29;20024;-77
2021/12/19 05:50:05;;;;;;;8.32;4.38;;;10.90;92.70;;;;;;4953265;29;20118;-77
2021/12/19 05:52:31;;;;;;;7.60;4.63;;;10.90;92.80;;;;;;4953415;29;20398;-76
2021/12/19 05:54:57;;;;;;;8.60;4.53;;;10.90;92.90;;;;;;4937214;29;20020;-76
2021/12/19 05:57:23;;;;;;;7.63;4.93;;;10.80;92.90;;;;;;4953306;29;20079;-77
2021/12/19 05:59:50;;;;;;;8.07;4.75;;;10.80;92.90;;;;;;4954328;29;20031;-76
2021/12/19 06:02:16;;;;;;;7.97;4.57;;;10.80;92.90;;;;;;4937220;29;20063;-77
2021/12/19 06:04:42;;;;;;;7.78;4.85;;;10.80;93.00;;;;;;4956108;28;20224;-77
2021/12/19 06:07:07;;;;;;;7.80;4.53;;;10.80;93.00;;;;;;4958174;29;20101;-77
2021/12/19 06:09:33;;;;;;;8.88;5.00;;;10.70;93.20;;;;;;4941055;29;20182;-80
2021/12/19 06:11:58;;;;;;;8.68;4.97;;;10.70;93.00;;;;;;4940996;29;20071;-77
2021/12/19 06:14:25;;;;;;;8.10;4.80;;;10.70;93.00;;;;;;4957853;29;20086;-77
2021/12/19 06:16:51;;;;;;;8.13;5.20;;;10.80;93.10;;;;;;4940802;29;20114;-77
2021/12/19 06:19:16;;;;;;;8.00;5.05;;;10.70;93.00;;;;;;4940371;29;20125;-76
2021/12/19 06:21:42;;;;;;;8.13;4.88;;;10.80;93.10;;;;;;4940746;29;20023;-77
2021/12/19 06:24:08;;;;;;;8.00;5.03;;;10.70;93.00;;;;;;4939963;29;20023;-77
2021/12/19 06:26:35;;;;;;;7.40;4.35;;;10.70;93.00;;;;;;4940717;29;20055;-76
2021/12/19 06:29:04;;;;;;;7.32;4.65;;;10.70;93.00;;;;;;4940519;29;20025;-77
2021/12/19 06:31:30;;;;;;;7.45;4.53;;;10.80;93.10;;;;;;4956430;29;20087;-77
2021/12/19 06:33:55;;;;;;;8.02;4.40;;;10.80;93.10;;;;;;4940382;29;20035;-77
2021/12/19 06:36:21;;;;;;;8.10;4.50;;;10.80;93.00;;;;;;4940301;29;20114;-77
2021/12/19 06:38:46;;;;;;;7.78;4.40;;;10.70;93.00;;;;;;4940075;29;20553;-77
2021/12/19 06:41:12;;;;;;;7.93;4.65;;;10.80;93.10;;;;;;4940794;29;20031;-76
2021/12/19 06:43:37;;;;;;;7.20;4.10;;;10.70;93.00;;;;;;4940299;29;20034;-78
2021/12/19 06:46:03;;;;;;;7.15;4.25;;;10.70;93.00;;;;;;4940503;29;20074;-76
2021/12/19 06:48:29;;;;;;;7.20;4.10;;;10.80;93.00;;;;;;4940287;29;20024;-77
2021/12/19 06:50:54;;;;;;;7.05;3.80;;;10.70;93.00;;;;;;4940284;29;20031;-77
2021/12/19 06:53:20;;;;;;;7.05;3.85;;;10.70;93.00;;;;;;4940191;29;20015;-76
2021/12/19 06:55:45;;;;;;;7.50;4.00;;;10.70;93.00;;;;;;4940040;29;20030;-77
2021/12/19 06:58:11;;;;;;;7.05;3.78;;;10.70;93.00;;;;;;4939918;29;20028;-76
2021/12/19 07:00:37;;;;;;;6.78;3.65;;;10.80;93.00;;;;;;4957509;29;20054;-76
2021/12/19 07:03:02;;;;;;;5.78;3.47;;;10.70;93.00;;;;;;4940311;29;20098;-77
2021/12/19 07:05:28;;;;;;;6.53;3.35;;;10.80;93.00;;;;;;4940116;29;20070;-77
2021/12/19 07:07:53;;;;;;;5.97;3.20;;;10.70;93.00;;;;;;4940395;29;20483;-78
2021/12/19 07:10:19;;;;;;;5.55;3.03;;;10.70;93.00;;;;;;4939771;29;20023;-78
2021/12/19 07:12:45;;;;;;;5.93;3.30;;;10.70;93.00;;;;;;4956953;29;20078;-77
2021/12/19 07:15:11;;;;;;;6.95;3.15;;;10.80;93.00;;;;;;4939315;29;20474;-77
2021/12/19 07:17:37;;;;;;;5.82;2.90;;;10.70;92.90;;;;;;4955431;29;20023;-78
2021/12/19 07:20:05;;;;;;;5.07;2.60;;;10.70;92.90;;;;;;4956727;29;20039;-78
2021/12/19 07:22:30;;;;;;;5.60;2.35;;;10.70;92.90;;;;;;4955598;29;20664;-78
2021/12/19 07:24:56;;;;;;;5.10;2.55;;;10.70;92.90;;;;;;4938799;29;20078;-78
2021/12/19 07:27:21;;;;;;;4.93;2.60;;;10.80;92.90;;;;;;4939314;29;20055;-78
2021/12/19 07:29:48;;;;;;;5.57;2.55;;;10.70;92.90;;;;;;4939196;29;20034;-77
2021/12/19 07:32:13;;;;;;;5.07;2.70;;;10.70;92.90;;;;;;4939305;29;20058;-78
2021/12/19 07:34:40;;;;;;;5.50;2.50;;;10.80;93.10;;;;;;4938884;29;20496;-77
2021/12/19 07:37:06;;;;;;;4.78;2.33;;;10.80;92.90;;;;;;4939420;29;20046;-78
2021/12/19 07:42:09;;;;;;;4.88;2.55;;;10.70;92.80;;;;;;4956508;29;20023;-78
2021/12/19 07:44:36;;;;;;;5.32;2.30;;;10.70;92.80;;;;;;4954720;29;20167;-77
2021/12/19 07:47:03;;;;;;;5.45;2.40;;;10.70;92.90;;;;;;4954897;29;20030;-77
2021/12/19 07:49:29;;;;;;;4.43;2.20;;;10.80;92.90;;;;;;4954764;29;20051;-77
2021/12/19 07:51:55;;;;;;;4.38;2.17;;;10.80;92.90;;;;;;4954897;29;20019;-77
2021/12/19 07:54:21;;;;;;;4.70;2.00;;;10.80;92.90;;;;;;4938640;29;20023;-76
2021/12/19 07:56:46;;;;;;;4.60;2.20;;;10.80;92.80;;;;;;4938687;29;20429;-76
2021/12/19 07:59:13;;;;;;;4.55;2.17;;;10.80;92.90;;;;;;4938523;29;20512;-77
2021/12/19 08:01:39;;;;;;;5.38;2.30;;;10.80;92.80;;;;;;4954873;29;20051;-77
2021/12/19 08:04:05;;;;;;;3.85;2.00;;;10.80;92.90;;;;;;4938588;29;20038;-77
2021/12/19 08:06:31;;;;;;;3.65;1.83;;;10.70;92.90;;;;;;4955975;29;20506;-78
2021/12/19 08:08:58;;;;;;;4.53;2.20;;;10.80;92.90;;;;;;4938675;29;20023;-77
2021/12/19 08:11:40;;;;;;;12.52;2.30;;;10.80;92.90;;;;;;4938843;29;20019;-77
2021/12/19 08:14:08;;;;;;;4.75;1.90;;;10.80;92.90;;;;;;4952280;29;20127;-78
2021/12/19 08:16:34;;;;;;;9.82;2.30;;;10.80;92.90;;;;;;4936521;29;20031;-78
2021/12/19 08:19:00;;;;;;;5.68;1.95;;;10.80;92.90;;;;;;4937537;29;20432;-77
2021/12/19 08:21:25;;;;;;;8.50;2.00;;;10.80;92.90;;;;;;4917990;29;20027;-78
2021/12/19 08:23:51;;;;;;;6.82;1.83;;;10.80;92.90;;;;;;4917330;29;20031;-77
2021/12/19 08:26:17;;;;;;;7.85;1.98;;;10.80;92.90;;;;;;4916741;29;20059;-78
2021/12/19 08:28:42;;;;;;;6.03;1.85;;;10.80;92.90;;;;;;4917307;29;20961;-77
2021/12/19 08:31:08;;;;;;;6.03;1.73;;;10.80;92.90;;;;;;4917432;29;20027;-79
2021/12/19 08:33:34;;;;;;;5.75;1.60;;;10.80;92.90;;;;;;4917268;29;20031;-77
2021/12/19 08:35:59;;;;;;;5.40;1.70;;;10.80;92.90;;;;;;4932983;29;20039;-77
2021/12/19 08:38:26;;;;;;;4.70;2.00;;;10.80;92.90;;;;;;4916827;29;20475;-78
2021/12/19 08:40:52;;;;;;;5.57;1.80;;;10.80;92.90;;;;;;4917370;29;20039;-79
2021/12/19 08:43:19;;;;;;;5.80;1.73;;;10.80;92.90;;;;;;4917018;29;20028;-76
2021/12/19 08:45:45;;;;;;;3.60;1.60;;;10.80;92.90;;;;;;4934639;29;20027;-80
2021/12/19 08:48:11;;;;;;;3.97;1.65;;;10.80;92.90;;;;;;4916614;29;20044;-78
2021/12/19 08:50:37;;;;;;;3.47;1.50;;;10.80;92.90;;;;;;4917212;29;20456;-80
2021/12/19 08:53:03;;;;;;;3.30;1.20;;;10.70;92.90;;;;;;4934163;29;20034;-79
2021/12/19 08:55:29;;;;;;;3.63;1.42;;;10.80;92.90;;;;;;4917017;29;20031;-79
2021/12/19 08:57:58;;;;;;;4.72;1.80;;;10.80;92.90;;;;;;4916687;29;20033;-79
2021/12/19 09:00:23;;;;;;;3.65;1.83;;;10.80;92.90;;;;;;4916385;29;20041;-79
2021/12/19 09:02:53;;;;;;;5.05;1.48;;;10.80;92.80;;;;;;4914689;29;20466;-79
2021/12/19 09:05:20;;;;;;;3.28;1.60;;;10.70;92.80;;;;;;4914053;29;20023;-79
2021/12/19 13:16:54;;;;;;;10.80;2.67;;;10.70;92.80;;;;;;4946846;28;20051;-80
2021/12/19 13:20:06;;;;;;;7.30;2.53;;;10.90;93.10;;;;;;4930033;29;20011;-78
2021/12/19 13:22:47;;;;;;;6.93;2.20;;;10.80;92.70;;;;;;4938655;29;20024;-78
2021/12/19 13:25:18;;;;;;;8.60;2.35;;;10.80;92.80;;;;;;4917392;29;20028;-79
2021/12/19 13:27:53;;;;;;;7.57;2.28;;;10.80;92.80;;;;;;4917036;29;20032;-78
2021/12/19 13:30:29;;;;;;;8.73;2.38;;;10.90;92.80;;;;;;4917081;29;20031;-78
2021/12/19 13:33:07;;;;;;;8.32;2.47;;;10.90;92.90;;;;;;4919405;29;20031;-78
2021/12/19 13:35:40;;;;;;;6.97;2.33;;;10.70;92.80;;;;;;4918552;29;20027;-79
2021/12/19 13:38:12;;;;;;;8.25;2.40;;;10.90;92.80;;;;;;4918813;29;20028;-79
2021/12/19 13:40:41;;;;;;;8.02;2.38;;;10.80;92.90;;;;;;4917951;29;20035;-79
2021/12/19 13:43:12;;;;;;;10.07;3.08;;;10.80;93.40;;;;;;4920338;29;20062;-79
2021/12/19 13:45:44;;;;;;;8.70;2.35;;;10.90;93.20;;;;;;4918024;29;20031;-79
2021/12/19 13:48:21;;;;;;;6.30;2.03;;;10.90;93.50;;;;;;4917509;29;20039;-78
2021/12/19 13:50:59;;;;;;;10.65;2.35;;;11.00;94.00;;;;;;4918278;29;20028;-80
2021/12/19 13:53:30;;;;;;;7.05;2.45;;;11.00;93.70;;;;;;4918360;29;20114;-80
2021/12/19 13:56:04;;;;;;;9.00;2.45;;;11.10;94.10;;;;;;4920032;29;20398;-78
2021/12/19 14:15:54;;;;;;;;;;;;;;;;;;;;;
2021/12/19 15:10:00;;;;;;;33.33;4.55;;;11.70;93.20;;;;;;4935361;29;20052;-77
2021/12/19 15:12:26;;;;;;;101.43;10.02;;;11.70;93.30;;;;;;4920329;29;20057;-77
2021/12/19 15:14:51;;;;;;;65.10;6.25;;;11.80;93.40;;;;;;4937696;29;20534;-76
2021/12/19 15:17:17;;;;;;;45.45;5.28;;;12.00;93.30;;;;;;4915098;29;20063;-76
2021/12/19 15:19:42;;;;;;;33.60;4.97;;;12.10;93.20;;;;;;4901485;29;20028;-77
2021/12/19 15:22:08;;;;;;;30.67;4.93;;;12.10;93.10;;;;;;4901406;29;20168;-76
2021/12/19 15:24:36;;;;;;;21.48;3.35;;;12.20;93.10;;;;;;4901155;29;20032;-76
2021/12/19 15:27:02;;;;;;;19.88;3.42;;;12.20;93.10;;;;;;4917956;29;20020;-76
2021/12/19 15:29:28;;;;;;;18.98;3.50;;;12.20;93.10;;;;;;4901305;29;20032;-76
2021/12/19 15:31:53;;;;;;;13.13;2.45;;;12.20;93.10;;;;;;4901088;29;20020;-75
2021/12/19 15:34:19;;;;;;;18.02;2.85;;;12.20;93.00;;;;;;4917580;29;20103;-76
2021/12/19 15:36:46;;;;;;;14.13;2.60;;;12.20;93.00;;;;;;4900151;29;20043;-75
2021/12/19 15:39:12;;;;;;;11.32;2.25;;;12.20;93.00;;;;;;4918187;29;20024;-77
2021/12/19 15:41:37;;;;;;;10.90;2.53;;;12.20;92.90;;;;;;4912305;29;20028;-76
2021/12/19 15:44:03;;;;;;;14.18;2.55;;;12.20;92.80;;;;;;4882015;29;20032;-75
2021/12/19 15:46:29;;;;;;;8.98;2.40;;;12.30;92.80;;;;;;4882222;29;20405;-76
2021/12/19 15:48:56;;;;;;;10.15;2.00;;;12.20;92.80;;;;;;4882011;29;20025;-76
2021/12/19 15:51:22;;;;;;;8.38;1.70;;;12.20;92.90;;;;;;4882073;29;20029;-76
2021/12/19 15:53:49;;;;;;;9.85;1.90;;;12.20;92.90;;;;;;4906369;29;20050;-78
2021/12/19 15:56:14;;;;;;;9.85;1.85;;;12.20;92.80;;;;;;4936658;29;20020;-77
2021/12/19 15:58:40;;;;;;;15.93;2.65;;;12.20;92.50;;;;;;4936975;29;20364;-76
2021/12/19 16:01:05;;;;;;;17.42;2.67;;;12.20;91.90;;;;;;4919469;29;20039;-76
2021/12/19 16:03:32;;;;;;;13.48;2.25;;;12.10;92.50;;;;;;4936146;29;20035;-76
2021/12/19 16:05:57;;;;;;;12.70;1.92;;;12.10;92.40;;;;;;4919261;29;20027;-77
2021/12/19 16:08:23;;;;;;;14.85;2.20;;;12.10;92.50;;;;;;4936154;29;20040;-77
2021/12/19 16:10:48;;;;;;;10.35;2.10;;;12.00;92.60;;;;;;4919239;29;20071;-76
2021/12/19 16:13:14;;;;;;;9.68;2.00;;;12.00;92.80;;;;;;4919142;29;20023;-77
2021/12/19 16:15:40;;;;;;;13.05;2.53;;;12.00;92.70;;;;;;4936029;29;20028;-79
2021/12/19 16:18:06;;;;;;;10.68;2.15;;;12.00;92.60;;;;;;4919059;29;20035;-76
2021/12/19 16:20:31;;;;;;;14.77;2.40;;;12.00;92.60;;;;;;4919078;29;20043;-77
2021/12/19 16:22:57;;;;;;;15.40;2.58;;;12.00;92.50;;;;;;4936199;29;20055;-76
2021/12/19 16:25:26;;;;;;;13.85;2.92;;;12.00;92.50;;;;;;4935932;29;20477;-77
2021/12/19 16:27:51;;;;;;;11.80;2.33;;;12.00;92.50;;;;;;4919033;29;20106;-76
2021/12/19 16:30:19;;;;;;;12.25;2.40;;;12.00;92.40;;;;;;4919060;29;20051;-76
2021/12/19 16:32:49;;;;;;;10.93;2.10;;;12.00;92.20;;;;;;4918968;29;20035;-77
2021/12/19 16:35:15;;;;;;;11.20;2.15;;;12.00;92.20;;;;;;4934457;29;20070;-77
2021/12/19 16:37:40;;;;;;;13.23;2.67;;;12.00;92.20;;;;;;4918967;29;20051;-77
2021/12/19 16:40:09;;;;;;;13.15;2.90;;;12.00;92.10;;;;;;4935997;29;20063;-75
2021/12/19 16:45:00;;;;;;;12.00;2.28;;;12.10;92.00;;;;;;4935635;29;20431;-76
2021/12/19 16:47:26;;;;;;;10.65;2.10;;;12.10;92.10;;;;;;4918038;29;20480;-76
2021/12/19 16:49:52;;;;;;;11.55;2.38;;;12.10;91.90;;;;;;4918548;29;20035;-76
2021/12/19 16:52:19;;;;;;;14.57;2.78;;;12.10;91.70;;;;;;4919337;29;20091;-79
2021/12/19 16:54:46;;;;;;;12.43;2.10;;;12.10;91.60;;;;;;4919585;29;20482;-80
2021/12/19 16:57:13;;;;;;;15.75;2.65;;;12.10;91.10;;;;;;4940510;29;20103;-83
2021/12/19 16:59:39;;;;;;;9.75;2.20;;;12.10;90.90;;;;;;4920133;29;20023;-78
2021/12/19 17:02:04;;;;;;;10.52;2.25;;;12.00;91.10;;;;;;4935936;29;20087;-77
2021/12/19 17:04:30;;;;;;;13.27;2.40;;;12.00;91.20;;;;;;4919228;29;20028;-77
2021/12/19 17:06:55;;;;;;;10.70;2.30;;;11.90;91.40;;;;;;4935677;29;20027;-77
2021/12/19 17:09:22;;;;;;;8.32;1.92;;;11.80;91.30;;;;;;4919068;29;20055;-78
2021/12/19 17:11:54;;;;;;;8.77;2.10;;;11.80;91.50;;;;;;4911050;29;20029;-77
2021/12/19 17:14:22;;;;;;;11.30;2.33;;;11.80;91.40;;;;;;4896403;29;20029;-78
2021/12/19 17:16:49;;;;;;;9.50;1.85;;;11.80;91.40;;;;;;4896425;29;20032;-78
2021/12/19 17:19:16;;;;;;;11.25;2.58;;;11.80;91.30;;;;;;4881158;29;20050;-78
2021/12/19 17:21:42;;;;;;;7.43;1.70;;;11.80;91.40;;;;;;4880917;29;20025;-79
2021/12/19 17:24:09;;;;;;;7.90;1.90;;;11.70;91.40;;;;;;4897756;29;20032;-81
2021/12/19 17:26:36;;;;;;;8.35;2.13;;;11.70;91.40;;;;;;4883181;29;20640;-78
2021/12/19 17:29:02;;;;;;;7.60;1.90;;;11.70;91.30;;;;;;4880997;29;20033;-78
2021/12/19 17:31:28;;;;;;;9.20;2.58;;;11.70;91.30;;;;;;4897953;29;20112;-78
2021/12/19 17:33:54;;;;;;;6.93;1.90;;;11.70;91.30;;;;;;4880672;29;20060;-78
2021/12/19 17:36:28;;;;;;;8.98;2.00;;;11.60;91.50;;;;;;4897408;29;20047;-76
2021/12/19 17:38:55;;;;;;;11.40;2.20;;;11.60;91.50;;;;;;4880328;29;20582;-76
2021/12/19 17:41:22;;;;;;;9.48;2.15;;;11.60;91.50;;;;;;4897176;29;20031;-76
2021/12/19 17:43:49;;;;;;;7.70;2.00;;;11.50;91.60;;;;;;4880083;29;20043;-76
2021/12/19 17:46:16;;;;;;;7.57;1.95;;;11.50;91.70;;;;;;4880320;29;20520;-76
2021/12/19 17:48:43;;;;;;;10.93;1.90;;;11.50;91.50;;;;;;4880287;29;20036;-76
2021/12/19 17:51:09;;;;;;;10.32;1.80;;;11.40;91.60;;;;;;4897169;29;20029;-75
2021/12/19 17:53:35;;;;;;;7.95;2.00;;;11.40;91.50;;;;;;4896651;29;20048;-76
2021/12/19 17:56:01;;;;;;;8.88;2.30;;;11.40;91.60;;;;;;4897070;29;20020;-77
2021/12/19 17:58:28;;;;;;;12.55;2.10;;;11.40;91.70;;;;;;4880345;29;20123;-76
2021/12/19 18:00:56;;;;;;;7.68;1.90;;;11.40;91.50;;;;;;4881279;29;20039;-75
2021/12/19 18:03:25;;;;;;;6.72;1.77;;;11.40;91.40;;;;;;4883811;29;20041;-76
2021/12/19 18:05:54;;;;;;;9.30;1.70;;;11.40;91.30;;;;;;4883892;29;20029;-76
2021/12/19 18:08:20;;;;;;;8.20;1.90;;;11.40;91.20;;;;;;4915181;29;20028;-76
2021/12/19 18:10:46;;;;;;;8.07;2.03;;;11.40;91.10;;;;;;4917643;29;20020;-76
2021/12/19 18:13:12;;;;;;;8.05;2.15;;;11.40;91.10;;;;;;4899363;29;20477;-76
2021/12/19 18:15:37;;;;;;;5.82;2.22;;;11.50;91.10;;;;;;4883559;29;20041;-76
2021/12/19 18:18:04;;;;;;;8.07;1.90;;;11.40;91.00;;;;;;4900396;29;20032;-76
2021/12/19 18:20:29;;;;;;;7.55;1.92;;;11.40;90.90;;;;;;4899285;29;20060;-76
2021/12/19 18:22:56;;;;;;;8.43;1.92;;;11.50;91.00;;;;;;4899199;29;20060;-76
2021/12/19 18:25:23;;;;;;;7.43;1.75;;;11.50;91.00;;;;;;4898694;29;20025;-75
2021/12/19 18:27:50;;;;;;;8.73;2.38;;;11.40;90.90;;;;;;4883372;29;20025;-76
2021/12/19 18:30:17;;;;;;;5.75;1.75;;;11.50;90.90;;;;;;4899151;29;20081;-76
2021/12/19 18:32:43;;;;;;;7.57;1.83;;;11.50;90.80;;;;;;4899049;29;20029;-76
2021/12/19 18:35:09;;;;;;;9.18;2.25;;;11.40;90.90;;;;;;4900136;29;20029;-76
2021/12/19 18:37:38;;;;;;;7.10;2.10;;;11.40;90.80;;;;;;4900058;29;20032;-76
2021/12/19 18:40:09;;;;;;;5.82;1.92;;;11.40;90.80;;;;;;4898928;29;20023;-76
2021/12/19 18:45:06;;;;;;;7.72;2.03;;;11.40;90.90;;;;;;4900174;29;20028;-76
2021/12/19 18:47:51;;;;;;;5.38;1.60;;;11.30;90.90;;;;;;4898767;29;20036;-76
2021/12/19 18:50:26;;;;;;;6.47;1.63;;;11.30;91.00;;;;;;4883060;29;20502;-76
2021/12/19 18:53:06;;;;;;;7.05;1.42;;;11.30;91.10;;;;;;4900011;29;20029;-77
2021/12/19 18:55:46;;;;;;;5.85;1.60;;;11.30;91.40;;;;;;4899779;29;20021;-76
2021/12/19 18:58:18;;;;;;;6.40;1.73;;;11.20;91.20;;;;;;4899215;29;20033;-76
2021/12/19 19:00:53;;;;;;;8.25;1.77;;;11.20;91.20;;;;;;4899882;29;20017;-76
2021/12/19 19:03:26;;;;;;;11.07;1.73;;;11.20;91.20;;;;;;4883204;29;20028;-81
2021/12/19 19:05:54;;;;;;;34.38;4.03;;;11.20;91.40;;;;;;4898703;29;20033;-77
2021/12/19 19:08:23;;;;;;;19.10;2.40;;;11.30;91.30;;;;;;4899805;29;20500;-78
2021/12/19 19:10:53;;;;;;;16.02;2.20;;;11.30;91.00;;;;;;4899228;29;20024;-77